Time;durP1;ratioP1;P1;durP2;ratioP2;P2;SDS_P1;SDS_P2;PMS_P1;PMS_P2;Temp;Humidity;BMP_temperature;BMP_pressure;BME280_temperature;BME280_humidity;BME280_pressure;Samples;Min_cycle;Max_cycle;Signal;HPM_P1;HPM_P2
2022/01/11 00:01:29;;;;;;;;;;;;;;;2.93;59.34;100310.41;4443503;32;20392;-90
2022/01/11 00:03:54;;;;;;;;;;;;;;;2.72;59.33;100309.38;4443277;32;20329;-91
2022/01/11 00:06:38;;;;;;;;;;;;;;;2.70;59.32;100312.78;4442632;32;19984;-91
2022/01/11 00:09:18;;;;;;;;;;;;;;;2.72;59.32;100313.66;4445461;32;19968;-91
2022/01/11 00:11:44;;;;;;;;;;;;;;;2.71;59.32;100315.37;4445352;32;19990;-91
2022/01/11 00:14:09;;;;;;;;;;;;;;;2.41;59.30;100321.09;4443183;32;20008;-91
2022/01/11 00:16:34;;;;;;;;;;;;;;;2.48;59.31;100322.00;4443135;32;20052;-89
2022/01/11 00:19:05;;;;;;;;;;;;;;;2.62;59.32;100315.31;4443787;32;19988;-91
2022/01/11 00:21:30;;;;;;;;;;;;;;;2.56;59.32;100322.06;4444877;32;19981;-92
2022/01/11 00:26:40;;;;;;;;;;;;;;;2.49;59.31;100321.16;4459003;32;19987;-91
2022/01/11 00:29:05;;;;;;;;;;;;;;;2.42;59.31;100327.09;4456716;32;19992;-91
2022/01/11 00:31:30;;;;;;;;;;;;;;;2.45;59.31;100342.53;4443565;32;20008;-91
2022/01/11 00:33:55;;;;;;;;;;;;;;;2.38;59.31;100343.34;4455919;32;20018;-88
2022/01/11 00:36:21;;;;;;;;;;;;;;;2.43;59.30;100344.22;4442416;32;20334;-89
2022/01/11 00:38:46;;;;;;;;;;;;;;;2.15;59.30;100346.50;4455247;32;19972;-87
2022/01/11 00:41:12;;;;;;;;;;;;;;;2.31;59.31;100355.22;4454584;32;31626;-88
2022/01/11 00:43:37;;;;;;;;;;;;;;;2.19;59.30;100355.09;4455259;32;20340;-88
2022/01/11 00:46:03;;;;;;;;;;;;;;;2.45;59.32;100352.81;4442546;32;20011;-90
2022/01/11 00:48:28;;;;;;;;;;;;;;;2.49;59.31;100369.13;4442595;32;20355;-89
2022/01/11 00:50:53;;;;;;;;;;;;;;;2.39;59.30;100369.03;4442649;32;20008;-91
2022/01/11 00:53:19;;;;;;;;;;;;;;;2.20;59.29;100367.09;4442829;32;19993;-90
2022/01/11 00:55:45;;;;;;;;;;;;;;;2.50;59.31;100360.56;4442310;32;20275;-88
2022/01/11 00:58:10;;;;;;;;;;;;;;;2.21;59.29;100363.69;4455698;32;19977;-90
2022/01/11 01:00:35;;;;;;;;;;;;;;;2.20;59.29;100372.22;4442532;32;20026;-89
2022/01/11 01:03:01;;;;;;;;;;;;;;;2.29;59.31;100372.31;4455484;32;20227;-90
2022/01/11 01:05:26;;;;;;;;;;;;;;;2.32;59.30;100376.63;4442263;32;19980;-90
2022/01/11 01:07:52;;;;;;;;;;;;;;;2.39;59.31;100383.59;4455239;32;20024;-89
2022/01/11 01:10:26;;;;;;;;;;;;;;;2.41;59.31;100379.31;4455431;32;20006;-89
2022/01/11 01:12:52;;;;;;;;;;;;;;;2.54;59.32;100388.00;4443276;32;19993;-90
2022/01/11 01:15:18;;;;;;;;;;;;;;;2.50;59.32;100394.84;4442305;32;20003;-89
2022/01/11 01:17:43;;;;;;;;;;;;;;;2.53;59.31;100389.72;4442310;32;20004;-89
2022/01/11 01:20:08;;;;;;;;;;;;;;;2.55;59.32;100397.44;4441579;32;26226;-89
2022/01/11 01:22:33;;;;;;;;;;;;;;;2.49;59.31;100390.53;4442165;32;20012;-89
2022/01/11 01:24:59;;;;;;;;;;;;;;;2.54;59.32;100394.00;4442220;32;19990;-89
2022/01/11 01:27:24;;;;;;;;;;;;;;;2.41;59.31;100400.75;4455073;32;20026;-88
2022/01/11 01:29:49;;;;;;;;;;;;;;;2.38;59.31;100400.72;4442183;32;20007;-89
2022/01/11 01:32:14;;;;;;;;;;;;;;;2.23;59.30;100397.94;4441562;32;26594;-89
2022/01/11 01:34:40;;;;;;;;;;;;;;;2.38;59.31;100405.84;4454820;32;20012;-88
2022/01/11 01:37:07;;;;;;;;;;;;;;;2.68;59.32;100404.44;4454489;32;21273;-88
2022/01/11 01:39:32;;;;;;;;;;;;;;;2.62;59.32;100402.69;4469318;32;19992;-89
2022/01/11 01:41:57;;;;;;;;;;;;;;;2.46;59.31;100405.94;4469382;32;20001;-89
2022/01/11 01:44:25;;;;;;;;;;;;;;;2.50;59.31;100399.09;4454949;32;20038;-90
2022/01/11 01:46:50;;;;;;;;;;;;;;;2.53;59.32;100405.12;4455282;32;19977;-89
2022/01/11 01:49:18;;;;;;;;;;;;;;;2.57;59.31;100403.47;4441592;32;23158;-89
2022/01/11 01:51:44;;;;;;;;;;;;;;;2.62;59.32;100407.84;4454778;32;20063;-89
2022/01/11 01:54:09;;;;;;;;;;;;;;;2.49;59.31;100410.22;4469347;32;19977;-91
2022/01/11 01:56:35;;;;;;;;;;;;;;;2.67;59.32;100410.44;4454636;32;34341;-89
2022/01/11 01:59:00;;;;;;;;;;;;;;;2.50;59.31;100406.81;4454825;32;20704;-89
2022/01/11 02:01:26;;;;;;;;;;;;;;;2.43;59.30;100411.03;4456186;32;20026;-92
2022/01/11 02:03:51;;;;;;;;;;;;;;;2.72;59.32;100403.63;4444205;32;19993;-93
2022/01/11 02:06:17;;;;;;;;;;;;;;;2.52;59.32;100405.12;4443768;32;19996;-92
2022/01/11 02:08:44;;;;;;;;;;;;;;;2.51;59.32;100404.25;4443684;32;20032;-91
2022/01/11 02:11:10;;;;;;;;;;;;;;;2.39;59.31;100417.00;4443932;32;19992;-91
2022/01/11 02:13:35;;;;;;;;;;;;;;;2.50;59.32;100412.81;4443496;32;20008;-92
2022/01/11 02:16:03;;;;;;;;;;;;;;;2.57;59.32;100417.16;4443478;32;19999;-91
2022/01/11 02:18:28;;;;;;;;;;;;;;;2.30;59.30;100424.56;4443635;32;20560;-92
2022/01/11 02:20:56;;;;;;;;;;;;;;;2.26;59.30;100420.25;4443712;32;20023;-92
2022/01/11 02:23:21;;;;;;;;;;;;;;;2.14;59.29;100419.25;4456496;32;19992;-92
2022/01/11 02:25:46;;;;;;;;;;;;;;;2.03;59.28;100417.38;4443155;32;20028;-89
2022/01/11 02:28:14;;;;;;;;;;;;;;;2.12;59.29;100415.78;4443126;32;20038;-91
2022/01/11 02:30:39;;;;;;;;;;;;;;;2.15;59.29;100415.00;4442154;32;20293;-91
2022/01/11 02:33:09;;;;;;;;;;;;;;;2.00;59.29;100419.91;4443495;32;20022;-91
2022/01/11 02:35:34;;;;;;;;;;;;;;;2.00;59.29;100422.47;4445560;32;20024;-95
2022/01/11 02:38:00;;;;;;;;;;;;;;;1.99;59.29;100425.88;4444295;32;20779;-94
2022/01/11 02:40:25;;;;;;;;;;;;;;;2.09;59.29;100423.44;4444268;32;20580;-94
2022/01/11 02:42:50;;;;;;;;;;;;;;;1.74;59.27;100428.13;4443613;32;21861;-94
2022/01/11 02:45:19;;;;;;;;;;;;;;;1.80;59.27;100435.03;4443115;32;21696;-93
2022/01/11 02:47:44;;;;;;;;;;;;;;;1.67;59.27;100431.44;4443924;32;20605;-94
2022/01/11 02:50:10;;;;;;;;;;;;;;;1.75;59.27;100429.84;4444191;32;20037;-93
2022/01/11 02:52:35;;;;;;;;;;;;;;;1.88;59.28;100436.00;4456913;32;20020;-90
2022/01/11 02:55:01;;;;;;;;;;;;;;;1.87;59.28;100431.69;4442314;32;19984;-91
2022/01/11 02:57:26;;;;;;;;;;;;;;;1.71;59.27;100427.22;4454904;32;20668;-89
2022/01/11 02:59:51;;;;;;;;;;;;;;;1.64;59.27;100438.22;4454628;32;20396;-90
2022/01/11 03:02:17;;;;;;;;;;;;;;;1.59;59.26;100442.41;4441752;32;20563;-90
2022/01/11 03:04:44;;;;;;;;;;;;;;;1.45;59.25;100444.78;4441066;32;20065;-89
2022/01/11 03:07:09;;;;;;;;;;;;;;;1.40;59.26;100434.41;4441937;32;19987;-93
2022/01/11 03:09:49;;;;;;;;;;;;;;;1.32;59.24;100447.97;4443194;32;19992;-91
2022/01/11 03:12:14;;;;;;;;;;;;;;;1.35;59.25;100450.59;4444925;32;20042;-92
2022/01/11 03:14:39;;;;;;;;;;;;;;;1.41;59.25;100453.25;4455667;32;20000;-91
2022/01/11 03:17:05;;;;;;;;;;;;;;;1.01;59.23;100469.66;4442016;32;19968;-91
2022/01/11 03:19:30;;;;;;;;;;;;;;;1.04;59.24;100467.16;4442222;32;19985;-90
2022/01/11 03:21:55;;;;;;;;;;;;;;;0.97;59.23;100475.59;4441556;32;21841;-91
2022/01/11 03:24:20;;;;;;;;;;;;;;;0.75;59.22;100470.06;4441600;32;22528;-91
2022/01/11 03:26:46;;;;;;;;;;;;;;;0.85;59.22;100468.50;4441803;32;24388;-91
2022/01/11 03:29:11;;;;;;;;;;;;;;;0.45;59.20;100477.97;4442282;32;20659;-92
2022/01/11 03:31:36;;;;;;;;;;;;;;;0.44;59.20;100476.25;4442141;32;20042;-91
2022/01/11 03:34:01;;;;;;;;;;;;;;;0.44;59.19;100480.50;4442352;32;20039;-91
2022/01/11 03:36:27;;;;;;;;;;;;;;;0.53;59.21;100483.28;4442308;32;19964;-91
2022/01/11 03:38:52;;;;;;;;;;;;;;;0.34;59.19;100486.28;4442247;32;20015;-90
2022/01/11 03:41:17;;;;;;;;;;;;;;;0.48;59.20;100483.19;4441491;32;20035;-89
2022/01/11 03:43:42;;;;;;;;;;;;;;;0.45;59.20;100477.13;4456039;32;20253;-89
2022/01/11 03:46:08;;;;;;;;;;;;;;;0.18;59.18;100475.72;4455678;32;19985;-90
2022/01/11 03:48:33;;;;;;;;;;;;;;;0.23;59.19;100479.22;4442784;32;20012;-89
2022/01/11 03:50:58;;;;;;;;;;;;;;;0.26;59.18;100478.47;4456077;32;24642;-91
2022/01/11 03:53:32;;;;;;;;;;;;;;;0.32;59.19;100483.69;4443657;32;20018;-91
2022/01/11 03:56:10;;;;;;;;;;;;;;;0.29;59.18;100489.62;4445534;32;19977;-93
2022/01/11 03:58:35;;;;;;;;;;;;;;;0.14;59.18;100493.53;4446222;32;20008;-92
2022/01/11 04:01:00;;;;;;;;;;;;;;;0.02;59.17;100501.81;4444039;32;20288;-90
2022/01/11 04:03:26;;;;;;;;;;;;;;;0.08;59.17;100507.06;4443397;32;20005;-89
2022/01/11 04:05:51;;;;;;;;;;;;;;;0.10;59.18;100513.09;4442858;32;20070;-88
2022/01/11 04:08:16;;;;;;;;;;;;;;;0.10;59.17;100517.34;4455699;32;20016;-90
2022/01/11 04:10:42;;;;;;;;;;;;;;;0.08;59.17;100513.88;4442576;32;20035;-88
2022/01/11 04:13:07;;;;;;;;;;;;;;;0.22;59.17;100515.03;4442759;32;20098;-90
2022/01/11 04:15:32;;;;;;;;;;;;;;;0.12;59.18;100519.09;4442408;32;20304;-89
2022/01/11 04:17:57;;;;;;;;;;;;;;;0.18;59.18;100510.69;4442721;32;20042;-90
2022/01/11 04:20:22;;;;;;;;;;;;;;;0.16;59.18;100517.47;4443184;32;20004;-90
2022/01/11 04:22:51;;;;;;;;;;;;;;;0.04;59.17;100528.31;4443602;32;19999;-90
2022/01/11 04:25:17;;;;;;;;;;;;;;;-0.10;59.16;100517.75;4443275;32;19973;-90
2022/01/11 04:27:42;;;;;;;;;;;;;;;-0.11;59.17;100513.47;4456036;32;20050;-89
2022/01/11 04:30:07;;;;;;;;;;;;;;;-0.09;59.16;100518.63;4469984;32;19972;-89
2022/01/11 04:32:33;;;;;;;;;;;;;;;-0.10;59.16;100520.31;4456223;32;20727;-90
2022/01/11 04:34:58;;;;;;;;;;;;;;;-0.06;59.17;100522.09;4443807;32;19980;-91
2022/01/11 04:37:24;;;;;;;;;;;;;;;0.04;59.17;100533.44;4456762;32;19997;-91
2022/01/11 04:39:49;;;;;;;;;;;;;;;-0.19;59.16;100534.59;4443434;32;20388;-91
2022/01/11 04:42:14;;;;;;;;;;;;;;;-0.08;59.16;100533.13;4443894;32;20007;-91
2022/01/11 04:44:39;;;;;;;;;;;;;;;-0.23;59.16;100543.03;4443024;32;19985;-91
2022/01/11 04:47:05;;;;;;;;;;;;;;;-0.26;59.16;100548.03;4443421;32;20008;-91
2022/01/11 04:49:30;;;;;;;;;;;;;;;-0.24;59.15;100554.91;4456421;32;20046;-91
2022/01/11 04:51:56;;;;;;;;;;;;;;;-0.26;59.16;100554.03;4442747;32;19996;-90
2022/01/11 04:54:22;;;;;;;;;;;;;;;-0.24;59.16;100557.47;4456290;32;19991;-90
2022/01/11 04:56:47;;;;;;;;;;;;;;;-0.26;59.16;100554.03;4442472;32;20561;-88
2022/01/11 04:59:12;;;;;;;;;;;;;;;-0.46;59.14;100558.69;4469274;32;20024;-89
2022/01/11 05:01:37;;;;;;;;;;;;;;;-0.43;59.15;100560.44;4455608;32;19992;-88
2022/01/11 05:04:03;;;;;;;;;;;;;;;-0.51;59.14;100570.44;4455623;32;19996;-89
2022/01/11 05:06:28;;;;;;;;;;;;;;;-0.53;59.14;100572.09;4443327;32;19984;-93
2022/01/11 05:08:53;;;;;;;;;;;;;;;-0.68;59.13;100576.84;4444013;32;20007;-91
2022/01/11 05:11:18;;;;;;;;;;;;;;;-0.58;59.13;100575.38;4443740;32;20257;-91
2022/01/11 05:13:44;;;;;;;;;;;;;;;-0.52;59.14;100586.63;4444196;32;19980;-91
2022/01/11 05:16:09;;;;;;;;;;;;;;;-0.49;59.15;100586.69;4456460;32;20058;-88
2022/01/11 05:18:36;;;;;;;;;;;;;;;-0.63;59.14;100600.84;4442349;32;20359;-89
2022/01/11 05:21:01;;;;;;;;;;;;;;;-0.51;59.14;100593.47;4443773;32;20008;-95
2022/01/11 05:23:26;;;;;;;;;;;;;;;-0.71;59.13;100598.09;4444034;32;19969;-88
2022/01/11 05:25:51;;;;;;;;;;;;;;;-0.89;59.12;100600.13;4442491;32;20023;-88
2022/01/11 05:28:17;;;;;;;;;;;;;;;-0.90;59.12;100603.50;4454902;32;20469;-85
2022/01/11 05:30:42;;;;;;;;;;;;;;;-0.99;59.11;100608.34;4468709;32;26257;-88
2022/01/11 05:33:07;;;;;;;;;;;;;;;-1.23;59.10;100606.81;4442284;32;23600;-90
2022/01/11 05:35:32;;;;;;;;;;;;;;;-1.33;59.09;100616.75;4442720;32;19996;-91
2022/01/11 05:37:57;;;;;;;;;;;;;;;-1.39;59.09;100616.56;4443389;32;19997;-90
2022/01/11 05:40:23;;;;;;;;;;;;;;;-1.33;59.09;100622.72;4455991;32;19972;-90
2022/01/11 05:42:51;;;;;;;;;;;;;;;-1.15;59.09;100629.19;4442982;32;20041;-91
2022/01/11 05:45:16;;;;;;;;;;;;;;;-1.14;59.11;100624.13;4456001;32;20715;-89
2022/01/11 05:47:42;;;;;;;;;;;;;;;-1.26;59.09;100634.84;4442490;32;20012;-89
2022/01/11 05:50:08;;;;;;;;;;;;;;;-1.27;59.10;100652.66;4442705;32;19988;-89
2022/01/11 05:52:34;;;;;;;;;;;;;;;-1.24;59.09;100650.19;4469872;32;20024;-91
2022/01/11 05:55:00;;;;;;;;;;;;;;;-1.25;59.09;100644.22;4442477;32;20000;-89
2022/01/11 05:57:25;;;;;;;;;;;;;;;-1.16;59.11;100646.22;4455007;32;20050;-89
2022/01/11 05:59:50;;;;;;;;;;;;;;;-1.32;59.09;100644.88;4442070;32;19977;-88
2022/01/11 06:02:16;;;;;;;;;;;;;;;-1.22;59.10;100661.31;4469534;32;20454;-90
2022/01/11 06:04:41;;;;;;;;;;;;;;;-1.12;59.10;100655.69;4440918;32;19997;-89
2022/01/11 06:07:06;;;;;;;;;;;;;;;-1.10;59.11;100658.28;4454221;32;20009;-89
2022/01/11 06:09:31;;;;;;;;;;;;;;;-1.03;59.11;100650.84;4454268;32;20015;-89
2022/01/11 06:11:56;;;;;;;;;;;;;;;-0.95;59.11;100657.06;4468910;32;19983;-89
2022/01/11 06:14:22;;;;;;;;;;;;;;;-1.00;59.11;100663.69;4441765;32;20051;-89
2022/01/11 06:16:47;;;;;;;;;;;;;;;-0.93;59.12;100674.97;4454395;32;20030;-90
2022/01/11 06:19:12;;;;;;;;;;;;;;;-0.92;59.12;100671.59;4454375;32;19999;-89
2022/01/11 06:21:38;;;;;;;;;;;;;;;-0.82;59.12;100673.59;4441464;32;20048;-89
2022/01/11 06:24:03;;;;;;;;;;;;;;;-0.79;59.12;100678.78;4468551;32;19981;-89
2022/01/11 06:26:29;;;;;;;;;;;;;;;-0.96;59.11;100685.94;4468728;32;20043;-89
2022/01/11 06:28:56;;;;;;;;;;;;;;;-0.68;59.13;100686.78;4453872;32;20250;-87
2022/01/11 06:31:21;;;;;;;;;;;;;;;-0.56;59.14;100694.78;4454293;32;19992;-88
2022/01/11 06:33:46;;;;;;;;;;;;;;;-0.57;59.14;100690.47;4440308;32;25970;-89
2022/01/11 06:36:12;;;;;;;;;;;;;;;-0.43;59.15;100698.53;4441376;32;20028;-89
2022/01/11 06:38:37;;;;;;;;;;;;;;;-0.41;59.15;100707.13;4440760;32;19999;-88
2022/01/11 06:41:03;;;;;;;;;;;;;;;-0.32;59.15;100713.34;4454342;32;19988;-89
2022/01/11 06:43:28;;;;;;;;;;;;;;;-0.41;59.15;100722.47;4441302;32;19985;-89
2022/01/11 06:45:53;;;;;;;;;;;;;;;-0.44;59.14;100720.69;4440912;32;22349;-89
2022/01/11 06:48:18;;;;;;;;;;;;;;;-0.78;59.12;100728.22;4453591;32;25039;-89
2022/01/11 06:50:43;;;;;;;;;;;;;;;-0.49;59.15;100729.03;4441413;32;19996;-89
2022/01/11 06:53:09;;;;;;;;;;;;;;;-0.68;59.13;100736.22;4453693;32;20064;-89
2022/01/11 06:55:37;;;;;;;;;;;;;;;-0.67;59.13;100742.19;4441197;32;19989;-89
2022/01/11 06:58:02;;;;;;;;;;;;;;;-0.71;59.13;100738.69;4441281;32;20056;-89
2022/01/11 07:00:27;;;;;;;;;;;;;;;-0.69;59.13;100743.84;4453837;32;19984;-89
2022/01/11 07:02:52;;;;;;;;;;;;;;;-0.48;59.14;100736.75;4441173;32;20038;-89
2022/01/11 07:05:18;;;;;;;;;;;;;;;-0.44;59.14;100737.75;4441197;32;19989;-89
2022/01/11 07:07:43;;;;;;;;;;;;;;;-0.65;59.14;100754.19;4440476;32;24497;-89
2022/01/11 07:10:08;;;;;;;;;;;;;;;-0.52;59.14;100749.41;4440974;32;20051;-90
2022/01/11 07:12:34;;;;;;;;;;;;;;;-0.49;59.15;100759.72;4468425;32;19988;-88
2022/01/11 07:14:59;;;;;;;;;;;;;;;-0.53;59.14;100756.22;4441274;32;20007;-89
2022/01/11 07:17:25;;;;;;;;;;;;;;;-0.49;59.15;100754.63;4455762;32;20357;-90
2022/01/11 07:19:50;;;;;;;;;;;;;;;-0.74;59.12;100765.81;4455984;32;20237;-89
2022/01/11 07:22:15;;;;;;;;;;;;;;;-0.61;59.13;100767.94;4442934;32;20028;-89
2022/01/11 07:24:40;;;;;;;;;;;;;;;-0.63;59.14;100767.88;4442440;32;20293;-90
2022/01/11 07:27:06;;;;;;;;;;;;;;;-0.54;59.14;100766.41;4455761;32;19981;-89
2022/01/11 07:29:31;;;;;;;;;;;;;;;-0.47;59.14;100769.22;4455385;32;19988;-89
2022/01/11 07:31:56;;;;;;;;;;;;;;;-0.19;59.16;100763.19;4455631;32;20309;-89
2022/01/11 07:34:21;;;;;;;;;;;;;;;-0.15;59.16;100770.09;4455516;32;19992;-89
2022/01/11 07:36:46;;;;;;;;;;;;;;;0.01;59.17;100773.09;4442350;32;21130;-89
2022/01/11 07:39:15;;;;;;;;;;;;;;;0.24;59.19;100777.13;4469914;32;20012;-89
2022/01/11 07:41:40;;;;;;;;;;;;;;;0.37;59.19;100775.72;4469990;32;20004;-88
2022/01/11 07:44:05;;;;;;;;;;;;;;;0.50;59.20;100786.34;4455413;32;19993;-89
2022/01/11 07:46:31;;;;;;;;;;;;;;;0.76;59.21;100776.72;4469998;32;20038;-89
2022/01/11 07:48:57;;;;;;;;;;;;;;;0.77;59.22;100775.03;4455419;32;19976;-89
2022/01/11 07:51:22;;;;;;;;;;;;;;;1.00;59.23;100775.56;4455769;32;20022;-89
2022/01/11 07:53:48;;;;;;;;;;;;;;;0.99;59.23;100772.13;4442818;32;19997;-89
2022/01/11 07:56:13;;;;;;;;;;;;;;;1.15;59.24;100774.19;4442741;32;20011;-89
2022/01/11 07:58:39;;;;;;;;;;;;;;;1.12;59.24;100773.25;4455660;32;19968;-89
2022/01/11 08:01:04;;;;;;;;;;;;;;;1.34;59.25;100772.03;4442768;32;20044;-89
2022/01/11 08:03:29;;;;;;;;;;;;;;;1.37;59.25;100770.41;4455494;32;19996;-89
2022/01/11 08:05:55;;;;;;;;;;;;;;;1.24;59.24;100786.37;4442485;32;20011;-90
2022/01/11 08:08:20;;;;;;;;;;;;;;;1.52;59.26;100772.44;4455457;32;20328;-89
2022/01/11 08:10:45;;;;;;;;;;;;;;;1.70;59.27;100780.53;4442207;32;21936;-89
2022/01/11 08:13:11;;;;;;;;;;;;;;;1.82;59.27;100780.75;4442461;32;20000;-89
2022/01/11 08:15:37;;;;;;;;;;;;;;;1.93;59.28;100777.53;4455481;32;19996;-88
2022/01/11 08:18:02;;;;;;;;;;;;;;;1.82;59.27;100792.72;4455696;32;19968;-89
2022/01/11 08:20:27;;;;;;;;;;;;;;;2.05;59.28;100777.75;4469807;32;20019;-89
2022/01/11 08:22:54;;;;;;;;;;;;;;;2.17;59.29;100785.72;4441945;32;24360;-89
2022/01/11 08:25:19;;;;;;;;;;;;;;;2.30;59.30;100784.22;4442372;32;20321;-89
2022/01/11 08:27:44;;;;;;;;;;;;;;;2.26;59.30;100780.72;4454806;32;20038;-89
2022/01/11 08:30:10;;;;;;;;;;;;;;;2.23;59.30;100785.81;4455353;32;20023;-87
2022/01/11 08:32:35;;;;;;;;;;;;;;;2.17;59.30;100800.25;4455368;32;20000;-90
2022/01/11 08:35:00;;;;;;;;;;;;;;;2.38;59.31;100786.09;4442447;32;19981;-90
2022/01/11 08:37:25;;;;;;;;;;;;;;;2.37;59.31;100786.06;4454952;32;20015;-89
2022/01/11 08:39:51;;;;;;;;;;;;;;;2.42;59.30;100794.72;4455032;32;22470;-89
2022/01/11 08:42:16;;;;;;;;;;;;;;;2.42;59.32;100800.72;4469746;32;19993;-91
2022/01/11 08:44:42;;;;;;;;;;;;;;;2.59;59.32;100800.13;4442266;32;20000;-90
2022/01/11 08:47:07;;;;;;;;;;;;;;;2.62;59.32;100818.22;4442395;32;19969;-90
2022/01/11 08:49:33;;;;;;;;;;;;;;;2.57;59.31;100812.97;4442395;32;20063;-91
2022/01/11 08:51:58;;;;;;;;;;;;;;;2.69;59.32;100809.75;4442258;32;20234;-89
2022/01/11 08:54:24;;;;;;;;;;;;;;;2.81;59.34;100811.62;4469615;32;20007;-90
2022/01/11 08:56:52;;;;;;;;;;;;;;;3.00;59.34;100806.81;4455542;32;20003;-89
2022/01/11 08:59:17;;;;;;;;;;;;;;;3.16;59.35;100812.22;4442585;32;20007;-90
2022/01/11 09:01:42;;;;;;;;;;;;;;;2.92;59.34;100794.69;4441881;32;23454;-89
2022/01/11 09:04:07;;;;;;;;;;;;;;;2.71;59.32;100811.50;4442455;32;19995;-90
2022/01/11 09:06:33;;;;;;;;;;;;;;;3.00;59.34;100808.53;4442363;32;20073;-88
2022/01/11 09:08:58;;;;;;;;;;;;;;;3.01;59.34;100812.84;4441830;32;19988;-89
2022/01/11 09:11:23;;;;;;;;;;;;;;;3.01;59.34;100807.69;4442121;32;20357;-91
2022/01/11 09:13:48;;;;;;;;;;;;;;;3.15;59.35;100813.06;4441915;32;19989;-89
2022/01/11 09:16:15;;;;;;;;;;;;;;;3.26;59.36;100808.91;4442020;32;20000;-89
2022/01/11 09:18:40;;;;;;;;;;;;;;;3.23;59.35;100811.44;4442502;32;20015;-90
2022/01/11 09:21:06;;;;;;;;;;;;;;;3.21;59.35;100806.28;4441722;32;24460;-90
2022/01/11 09:23:31;;;;;;;;;;;;;;;3.34;59.36;100804.75;4442172;32;19994;-91
2022/01/11 09:25:56;;;;;;;;;;;;;;;3.35;59.36;100803.91;4442163;32;20000;-89
2022/01/11 09:28:22;;;;;;;;;;;;;;;3.22;59.35;100809.72;4469247;32;20322;-89
2022/01/11 09:30:47;;;;;;;;;;;;;;;3.27;59.36;100810.66;4469696;32;20452;-91
2022/01/11 09:33:13;;;;;;;;;;;;;;;3.41;59.37;100800.56;4442191;32;20352;-91
2022/01/11 09:35:38;;;;;;;;;;;;;;;3.60;59.37;100799.97;4442193;32;20008;-89
2022/01/11 09:38:03;;;;;;;;;;;;;;;3.65;59.38;100808.59;4454454;32;20028;-90
2022/01/11 09:40:28;;;;;;;;;;;;;;;3.57;59.37;100812.81;4440446;32;21347;-89
2022/01/11 09:42:54;;;;;;;;;;;;;;;3.41;59.37;100806.56;4454312;32;21284;-90
2022/01/11 09:45:19;;;;;;;;;;;;;;;3.50;59.37;100804.09;4441898;32;19989;-91
2022/01/11 09:47:44;;;;;;;;;;;;;;;3.64;59.38;100801.72;4455026;32;20254;-88
2022/01/11 09:50:10;;;;;;;;;;;;;;;3.71;59.39;100811.25;4441782;32;20005;-89
2022/01/11 09:52:36;;;;;;;;;;;;;;;3.69;59.38;100815.53;4454814;32;19981;-91
2022/01/11 09:55:02;;;;;;;;;;;;;;;3.81;59.38;100795.09;4441954;32;20081;-90
2022/01/11 09:57:27;;;;;;;;;;;;;;;3.82;59.39;100799.41;4441778;32;20387;-89
2022/01/11 09:59:55;;;;;;;;;;;;;;;3.71;59.38;100790.66;4454213;32;19997;-90
2022/01/11 10:02:20;;;;;;;;;;;;;;;3.72;59.38;100792.38;4442229;32;19988;-90
2022/01/11 10:04:45;;;;;;;;;;;;;;;3.82;59.38;100794.25;4441503;32;20041;-90
2022/01/11 10:07:11;;;;;;;;;;;;;;;4.04;59.40;100795.34;4441861;32;20030;-91
2022/01/11 10:09:45;;;;;;;;;;;;;;;4.03;59.40;100785.03;4442223;32;20269;-90
2022/01/11 10:12:12;;;;;;;;;;;;;;;4.26;59.41;100791.31;4441933;32;19995;-91
2022/01/11 10:14:38;;;;;;;;;;;;;;;4.35;59.42;100783.66;4442164;32;19991;-91
2022/01/11 10:17:06;;;;;;;;;;;;;;;4.46;59.43;100792.34;4441747;32;20325;-89
2022/01/11 10:19:34;;;;;;;;;;;;;;;4.17;59.41;100793.75;4454759;32;20389;-89
2022/01/11 10:22:01;;;;;;;;;;;;;;;4.07;59.41;100792.81;4469102;32;20090;-92
2022/01/11 10:24:35;;;;;;;;;;;;;;;3.89;59.39;100798.63;4454509;32;19981;-90
2022/01/11 10:27:02;;;;;;;;;;;;;;;3.96;59.40;100794.38;4455154;32;20008;-90
2022/01/11 10:29:33;;;;;;;;;;;;;;;3.80;59.39;100798.50;4468928;32;20000;-91
2022/01/11 10:32:00;;;;;;;;;;;;;;;4.09;59.40;100787.69;4468832;32;20365;-91
2022/01/11 10:34:26;;;;;;;;;;;;;;;4.31;59.42;100793.06;4441365;32;19987;-91
2022/01/11 10:36:51;;;;;;;;;;;;;;;4.36;59.42;100782.81;4454569;32;19984;-89
2022/01/11 10:39:35;;;;;;;;;;;;;;;4.38;59.42;100799.13;4468531;32;19985;-89
2022/01/11 10:42:01;;;;;;;;;;;;;;;4.39;59.42;100808.59;4454494;32;19972;-91
2022/01/11 10:44:47;;;;;;;;;;;;;;;4.34;59.41;100791.38;4454525;32;20015;-89
2022/01/11 10:47:28;;;;;;;;;;;;;;;4.31;59.42;100799.94;4454659;32;19999;-90
2022/01/11 10:49:55;;;;;;;;;;;;;;;4.31;59.42;100810.25;4454252;32;20003;-89
2022/01/11 10:52:22;;;;;;;;;;;;;;;4.23;59.41;100806.72;4441543;32;20494;-92
2022/01/11 10:54:47;;;;;;;;;;;;;;;4.39;59.42;100794.84;4454701;32;19990;-90
2022/01/11 10:57:15;;;;;;;;;;;;;;;4.44;59.42;100783.72;4468730;32;20028;-89
2022/01/11 10:59:40;;;;;;;;;;;;;;;4.47;59.43;100796.63;4468636;32;19985;-90
2022/01/11 11:02:11;;;;;;;;;;;;;;;4.58;59.43;100796.75;4454278;32;20018;-89
2022/01/11 11:04:38;;;;;;;;;;;;;;;4.59;59.43;100799.34;4441045;32;19996;-89
2022/01/11 11:07:10;;;;;;;;;;;;;;;4.17;59.41;100788.59;4453864;32;20006;-90
2022/01/11 11:09:49;;;;;;;;;;;;;;;4.32;59.41;100796.50;4441024;32;20396;-90
2022/01/11 11:12:18;;;;;;;;;;;;;;;4.34;59.42;100797.38;4441542;32;19977;-90
2022/01/11 11:14:52;;;;;;;;;;;;;;;4.63;59.43;100797.66;4468175;32;20029;-91
2022/01/11 11:17:31;;;;;;;;;;;;;;;4.79;59.45;100786.63;4441073;32;19997;-91
2022/01/11 11:19:56;;;;;;;;;;;;;;;5.13;59.47;100787.72;4441174;32;20004;-91
2022/01/11 11:22:22;;;;;;;;;;;;;;;5.07;59.46;100790.28;4454042;32;20326;-92
2022/01/11 11:24:47;;;;;;;;;;;;;;;5.15;59.46;100783.44;4453797;32;20041;-89
2022/01/11 11:27:12;;;;;;;;;;;;;;;5.06;59.46;100790.25;4440151;32;28248;-89
2022/01/11 11:29:38;;;;;;;;;;;;;;;4.96;59.45;100804.78;4440543;32;20032;-90
2022/01/11 11:32:07;;;;;;;;;;;;;;;4.67;59.44;100803.69;4453955;32;20325;-91
2022/01/11 11:34:32;;;;;;;;;;;;;;;4.88;59.45;100793.56;4440953;32;20040;-89
2022/01/11 11:36:57;;;;;;;;;;;;;;;4.83;59.44;100796.13;4440456;32;20023;-91
2022/01/11 11:39:22;;;;;;;;;;;;;;;4.59;59.44;100796.78;4440733;32;20094;-92
2022/01/11 11:41:49;;;;;;;;;;;;;;;4.77;59.44;100788.34;4440681;32;20000;-91
2022/01/11 11:44:15;;;;;;;;;;;;;;;4.77;59.44;100797.78;4440920;32;19985;-90
2022/01/11 11:46:40;;;;;;;;;;;;;;;4.89;59.45;100790.13;4440856;32;20004;-91
2022/01/11 11:49:06;;;;;;;;;;;;;;;4.96;59.45;100786.72;4440519;32;20596;-90
2022/01/11 11:51:31;;;;;;;;;;;;;;;5.05;59.46;100791.12;4440153;32;20441;-90
2022/01/11 11:53:56;;;;;;;;;;;;;;;4.96;59.46;100785.87;4440194;32;20310;-92
2022/01/11 11:56:22;;;;;;;;;;;;;;;5.19;59.47;100777.44;4440271;32;20016;-90
2022/01/11 11:58:49;;;;;;;;;;;;;;;5.24;59.47;100791.25;4440457;32;20008;-90
2022/01/11 12:01:33;;;;;;;;;;;;;;;5.34;59.48;100788.72;4440511;32;19981;-91
2022/01/11 12:03:58;;;;;;;;;;;;;;;5.14;59.46;100794.62;4455441;32;19997;-90
2022/01/11 12:06:27;;;;;;;;;;;;;;;5.27;59.47;100786.97;4442798;32;19997;-91
2022/01/11 12:08:59;;;;;;;;;;;;;;;5.26;59.47;100782.66;4442693;32;19989;-91
2022/01/11 12:11:24;;;;;;;;;;;;;;;5.26;59.48;100791.25;4442664;32;20298;-92
2022/01/11 12:13:53;;;;;;;;;;;;;;;5.35;59.48;100793.03;4442732;32;20002;-92
2022/01/11 12:16:25;;;;;;;;;;;;;;;5.51;59.49;100787.09;4455754;32;20012;-90
2022/01/11 12:19:02;;;;;;;;;;;;;;;5.28;59.47;100789.56;4469879;32;20001;-91
2022/01/11 12:21:28;;;;;;;;;;;;;;;5.11;59.47;100791.16;4442887;32;19988;-91
2022/01/11 12:23:57;;;;;;;;;;;;;;;5.24;59.48;100783.50;4455467;32;19977;-91
2022/01/11 12:26:27;;;;;;;;;;;;;;;5.24;59.47;100780.06;4455761;32;20008;-88
2022/01/11 12:29:04;;;;;;;;;;;;;;;5.29;59.47;100787.84;4442171;32;19984;-91
2022/01/11 12:31:31;;;;;;;;;;;;;;;5.29;59.47;100782.66;4469961;32;20044;-91
2022/01/11 12:33:57;;;;;;;;;;;;;;;5.29;59.47;100787.84;4455672;32;20694;-91
2022/01/11 12:36:25;;;;;;;;;;;;;;;5.45;59.48;100781.91;4442870;32;20438;-91
2022/01/11 12:39:00;;;;;;;;;;;;;;;5.59;59.49;100788.00;4442965;32;20437;-92
2022/01/11 12:41:26;;;;;;;;;;;;;;;5.69;59.50;100783.75;4442711;32;19985;-92
2022/01/11 12:43:56;;;;;;;;;;;;;;;5.77;59.51;100790.66;4442280;32;19980;-89